Calanus - UK — GBJK — position and weather

sailwx.info

Track history (hours):
 
Tides and Currents Weather Stations Pressure Air Temp Water Temp Dewpoint Dewpoint Depression Visibility Wind Speed Wind Dir Waves Ship Positions

Oceanographic research ship Calanus - UK (UK)

Detailed information on ship capabilities available from University of Delaware's Ocean Information Center.

Last reported at 2017-May-18 15:24 UTC. Time now 2017-May-28 12:25 UTC.
Position N 56°27' W 005°26'.
Warning: this ship's position is 9 days out of date.

Length 19 m.

Type: Dredging. MMSI: 235050871.

Date/timePositionNaut miles runAvg speedWind from/ knotsBaromVisibWave heightAir tempDewpointWater temp
2017-May-18 15:24N 56°27' W 005°26'1 1.9
2017-May-18 15:00N 56°28' W 005°27'3 5.1
2017-May-18 14:30N 56°27' W 005°32'3 2.5
2017-May-18 13:25N 56°25' W 005°36'2 5.9
2017-May-18 13:00N 56°26' W 005°32'3 6.2
2017-May-18 12:29N 56°27' W 005°26'0 0.2
2017-May-18 11:58N 56°27' W 005°26'1 2.7
2017-May-18 11:29N 56°28' W 005°28'2 3.1
2017-May-18 11:00N 56°29' W 005°29'1 2.7
2017-May-18 10:28N 56°30' W 005°28'0 1.0
2017-May-18 10:00N 56°31' W 005°27'1 2.4
2017-May-18 09:27N 56°32' W 005°26'2 4.8
2017-May-18 09:00N 56°30' W 005°28'3 5.7
2017-May-18 08:30N 56°27' W 005°26'0 0.4
2017-May-18 07:58N 56°27' W 005°26'  
2017-May-11 17:02N 56°27' W 005°26'0 0.1
2017-May-11 17:00N 56°27' W 005°26'1 2.7
2017-May-11 16:28N 56°29' W 005°27'0 0.4
2017-May-11 15:59N 56°29' W 005°26'0 0.3
2017-May-11 15:24N 56°28' W 005°27'0 0.4
2017-May-11 14:59N 56°28' W 005°27'0 0.2
2017-May-11 13:59N 56°29' W 005°27'0 0.6
2017-May-11 13:29N 56°28' W 005°27'0 0.4
2017-May-11 12:59N 56°28' W 005°27'0 0.3
2017-May-11 12:29N 56°29' W 005°27'1 2.2
2017-May-11 11:59N 56°28' W 005°28'1 2.2
2017-May-11 11:30N 56°28' W 005°26'0 0.1
2017-May-11 11:00N 56°28' W 005°26'0 0.5
2017-May-11 10:28N 56°29' W 005°26'0 0.9
2017-May-11 10:00N 56°29' W 005°27'0 0.5
2017-May-11 09:29N 56°28' W 005°27'0 0.6
2017-May-11 09:00N 56°28' W 005°26'0 0.7
2017-May-11 08:30N 56°28' W 005°26'1 1.7
2017-May-11 08:00N 56°27' W 005°26'  
Track history (hours):
 
Tides and Currents Weather Stations Pressure Air Temp Water Temp Dewpoint Dewpoint Depression Visibility Wind Speed Wind Dir Waves Ship Positions

Oceanographic research ship Calanus - UK (UK)

Detailed information on ship capabilities available from University of Delaware's Ocean Information Center.

Last reported at 2017-May-18 15:24 UTC. Time now 2017-May-28 12:25 UTC.
Position N 56°27' W 005°26'.
Warning: this ship's position is 9 days out of date.

Length 19 m.

Type: Dredging. MMSI: 235050871.

Date/timePositionNaut miles runAvg speedWind from/ knotsBaromVisibWave heightAir tempDewpointWater temp
2017-May-18 15:24N 56°27' W 005°26'1 1.9
2017-May-18 15:00N 56°28' W 005°27'3 5.1
2017-May-18 14:30N 56°27' W 005°32'3 2.5
2017-May-18 13:25N 56°25' W 005°36'2 5.9
2017-May-18 13:00N 56°26' W 005°32'3 6.2
2017-May-18 12:29N 56°27' W 005°26'0 0.2
2017-May-18 11:58N 56°27' W 005°26'1 2.7
2017-May-18 11:29N 56°28' W 005°28'2 3.1
2017-May-18 11:00N 56°29' W 005°29'1 2.7
2017-May-18 10:28N 56°30' W 005°28'0 1.0
2017-May-18 10:00N 56°31' W 005°27'1 2.4
2017-May-18 09:27N 56°32' W 005°26'2 4.8
2017-May-18 09:00N 56°30' W 005°28'3 5.7
2017-May-18 08:30N 56°27' W 005°26'0 0.4
2017-May-18 07:58N 56°27' W 005°26'  
2017-May-11 17:02N 56°27' W 005°26'0 0.1
2017-May-11 17:00N 56°27' W 005°26'1 2.7
2017-May-11 16:28N 56°29' W 005°27'0 0.4
2017-May-11 15:59N 56°29' W 005°26'0 0.3
2017-May-11 15:24N 56°28' W 005°27'0 0.4
2017-May-11 14:59N 56°28' W 005°27'0 0.2
2017-May-11 13:59N 56°29' W 005°27'0 0.6
2017-May-11 13:29N 56°28' W 005°27'0 0.4
2017-May-11 12:59N 56°28' W 005°27'0 0.3
2017-May-11 12:29N 56°29' W 005°27'1 2.2
2017-May-11 11:59N 56°28' W 005°28'1 2.2
2017-May-11 11:30N 56°28' W 005°26'0 0.1
2017-May-11 11:00N 56°28' W 005°26'0 0.5
2017-May-11 10:28N 56°29' W 005°26'0 0.9
2017-May-11 10:00N 56°29' W 005°27'0 0.5
2017-May-11 09:29N 56°28' W 005°27'0 0.6
2017-May-11 09:00N 56°28' W 005°26'0 0.7
2017-May-11 08:30N 56°28' W 005°26'1 1.7
2017-May-11 08:00N 56°27' W 005°26'  

Dump ship's entire track history